createdAt,value
2019-05-11T00:00:31.089Z,89.40
2019-05-11T00:02:58.368Z,89.80
2019-05-11T00:05:25.686Z,90.00
2019-05-11T00:07:53.354Z,89.30
2019-05-11T00:10:23.560Z,89.60
2019-05-11T00:12:49.902Z,89.70
2019-05-11T00:15:17.113Z,90.30
2019-05-11T00:17:44.348Z,90.60
2019-05-11T00:20:11.979Z,90.40
2019-05-11T00:22:39.394Z,90.80
2019-05-11T00:25:07.109Z,90.60
2019-05-11T00:27:34.330Z,90.70
2019-05-11T00:30:03.770Z,90.90
2019-05-11T00:32:30.948Z,91.00
2019-05-11T00:34:57.851Z,91.00
2019-05-11T00:37:25.113Z,91.30
2019-05-11T00:39:53.023Z,91.40
2019-05-11T00:42:20.062Z,91.50
2019-05-11T00:44:47.680Z,91.50
2019-05-11T00:47:15.190Z,91.60
2019-05-11T00:49:42.907Z,91.80
2019-05-11T00:52:10.486Z,92.00
2019-05-11T00:54:38.163Z,91.70
2019-05-11T00:57:05.706Z,91.90
2019-05-11T00:59:32.971Z,91.80
2019-05-11T01:02:00.010Z,92.00
2019-05-11T01:04:28.476Z,91.80
2019-05-11T01:06:55.709Z,91.90
2019-05-11T01:09:22.766Z,92.00
2019-05-11T01:11:49.926Z,92.10
2019-05-11T01:14:17.121Z,92.10
2019-05-11T01:16:44.258Z,92.20
2019-05-11T01:19:12.574Z,92.20
2019-05-11T01:21:39.778Z,92.20
2019-05-11T01:24:06.794Z,92.20
2019-05-11T01:26:34.170Z,92.40
2019-05-11T01:29:01.288Z,92.50
2019-05-11T01:31:28.770Z,92.60
2019-05-11T01:33:55.799Z,92.50
2019-05-11T01:36:22.856Z,92.50
2019-05-11T01:38:50.569Z,92.50
2019-05-11T01:41:17.732Z,92.40
2019-05-11T01:43:45.054Z,92.40
2019-05-11T01:46:12.122Z,92.30
2019-05-11T01:48:39.097Z,92.40
2019-05-11T01:51:07.186Z,92.40
2019-05-11T01:53:34.406Z,92.40
2019-05-11T01:56:01.958Z,92.60
2019-05-11T01:58:29.273Z,92.40
2019-05-11T02:00:56.607Z,92.40
2019-05-11T02:03:23.801Z,92.50
2019-05-11T02:05:51.748Z,92.40
2019-05-11T02:08:19.117Z,92.40
2019-05-11T02:10:46.947Z,92.40
2019-05-11T02:13:14.149Z,92.40
2019-05-11T02:15:41.326Z,92.40
2019-05-11T02:18:08.245Z,92.40
2019-05-11T02:20:35.557Z,92.40
2019-05-11T02:23:02.729Z,92.40
2019-05-11T02:25:29.874Z,92.50
2019-05-11T02:27:56.989Z,92.70
2019-05-11T02:30:25.275Z,92.60
2019-05-11T02:32:52.466Z,92.70
2019-05-11T02:35:20.204Z,92.70
2019-05-11T02:37:47.235Z,92.60
2019-05-11T02:40:14.934Z,92.80
2019-05-11T02:42:42.293Z,92.90
2019-05-11T02:45:10.859Z,92.80
2019-05-11T02:47:38.105Z,92.90
2019-05-11T02:50:06.075Z,92.80
2019-05-11T02:52:36.832Z,92.70
2019-05-11T02:55:04.190Z,92.90
2019-05-11T02:57:31.735Z,92.80
2019-05-11T02:59:58.751Z,92.70
2019-05-11T03:02:26.855Z,92.70
2019-05-11T03:04:54.471Z,92.70
2019-05-11T03:07:22.155Z,92.90
2019-05-11T03:09:49.598Z,92.80
2019-05-11T03:12:17.098Z,93.30
2019-05-11T03:14:44.123Z,93.00
2019-05-11T03:17:18.322Z,93.20
2019-05-11T03:19:45.674Z,93.20
2019-05-11T03:22:12.616Z,93.20
2019-05-11T03:24:39.647Z,93.40
2019-05-11T03:27:07.145Z,93.30
2019-05-11T03:29:35.284Z,93.50
2019-05-11T03:32:02.431Z,93.40
2019-05-11T03:34:29.974Z,93.40
2019-05-11T03:36:57.994Z,93.60
2019-05-11T03:39:25.169Z,93.40
2019-05-11T03:41:53.334Z,93.40
2019-05-11T03:44:21.184Z,93.40
2019-05-11T03:46:48.406Z,93.30
2019-05-11T03:49:15.771Z,93.40
2019-05-11T03:51:42.875Z,93.50
2019-05-11T03:54:09.832Z,93.50
2019-05-11T03:56:39.570Z,93.40
2019-05-11T03:59:07.082Z,93.60
2019-05-11T04:01:34.002Z,93.60
2019-05-11T04:04:01.319Z,93.60
2019-05-11T04:06:28.376Z,93.70
2019-05-11T04:08:55.738Z,93.70
2019-05-11T04:11:23.354Z,93.70
2019-05-11T04:13:50.664Z,93.80
2019-05-11T04:16:17.823Z,93.50
2019-05-11T04:18:45.186Z,93.70
2019-05-11T04:21:12.347Z,93.50
2019-05-11T04:23:39.444Z,93.50
2019-05-11T04:26:06.935Z,93.50
2019-05-11T04:28:33.974Z,93.60
2019-05-11T04:31:01.496Z,93.60
2019-05-11T04:33:32.745Z,93.50
2019-05-11T04:35:58.002Z,93.50
2019-05-11T04:38:27.151Z,93.50
2019-05-11T04:40:54.139Z,93.50
2019-05-11T04:43:21.483Z,93.70
2019-05-11T04:45:48.512Z,93.50
2019-05-11T04:48:16.076Z,93.60
2019-05-11T04:50:43.122Z,93.50
2019-05-11T04:53:10.369Z,93.40
2019-05-11T04:55:38.150Z,93.40
2019-05-11T04:58:05.284Z,93.50
2019-05-11T05:00:32.478Z,93.80
2019-05-11T05:02:59.803Z,93.40
2019-05-11T05:05:26.829Z,93.40
2019-05-11T05:08:07.410Z,93.50
2019-05-11T05:10:23.754Z,93.40
2019-05-11T05:12:53.180Z,93.50
2019-05-11T05:15:20.318Z,93.50
2019-05-11T05:17:47.368Z,93.50
2019-05-11T05:20:14.973Z,93.50
2019-05-11T05:22:42.365Z,93.40
2019-05-11T05:25:09.526Z,93.60
2019-05-11T05:27:36.833Z,93.30
2019-05-11T05:30:04.328Z,93.50
2019-05-11T05:32:31.571Z,93.60
2019-05-11T05:34:58.889Z,93.90
2019-05-11T05:37:26.062Z,93.50
2019-05-11T05:39:53.122Z,93.40
2019-05-11T05:42:20.171Z,93.40
2019-05-11T05:44:47.371Z,93.60
2019-05-11T05:47:14.802Z,93.50
2019-05-11T05:49:42.190Z,93.70
2019-05-11T05:52:09.442Z,93.60
2019-05-11T05:54:37.015Z,93.40
2019-05-11T05:57:04.210Z,93.50
2019-05-11T05:59:31.478Z,93.60
2019-05-11T06:01:58.744Z,93.50
2019-05-11T06:04:25.798Z,93.60
2019-05-11T06:06:52.866Z,93.50
2019-05-11T06:09:20.070Z,93.50
2019-05-11T06:11:47.091Z,93.50
2019-05-11T06:14:15.110Z,93.50
2019-05-11T06:16:42.150Z,93.50
2019-05-11T06:19:09.626Z,93.80
2019-05-11T06:21:37.038Z,93.50
2019-05-11T06:24:08.079Z,93.50
2019-05-11T06:26:35.062Z,93.40
2019-05-11T06:29:02.342Z,93.30
2019-05-11T06:31:32.160Z,93.70
2019-05-11T06:33:59.363Z,93.70
2019-05-11T06:36:26.882Z,93.40
2019-05-11T06:38:54.042Z,93.40
2019-05-11T06:41:21.474Z,93.40
2019-05-11T06:44:01.375Z,93.50
2019-05-11T06:46:19.280Z,93.70
2019-05-11T06:48:46.651Z,93.50
2019-05-11T06:51:14.147Z,94.00
2019-05-11T06:53:41.573Z,93.80
2019-05-11T06:56:08.588Z,93.70
2019-05-11T06:58:35.498Z,93.30
2019-05-11T07:01:04.030Z,93.50
2019-05-11T07:03:30.962Z,93.40
2019-05-11T07:05:58.318Z,93.30
2019-05-11T07:08:25.885Z,93.50
2019-05-11T07:10:53.407Z,93.50
2019-05-11T07:13:20.638Z,93.60
2019-05-11T07:15:48.420Z,93.60
2019-05-11T07:18:15.566Z,93.60
2019-05-11T07:20:50.404Z,93.60
2019-05-11T07:23:11.452Z,93.50
2019-05-11T07:25:38.518Z,93.50
2019-05-11T07:28:05.574Z,93.40
2019-05-11T07:30:32.926Z,93.40
2019-05-11T07:33:01.124Z,93.40
2019-05-11T07:35:29.645Z,93.40
2019-05-11T07:37:58.169Z,93.50
2019-05-11T07:40:27.822Z,93.40
2019-05-11T07:42:55.230Z,93.60
2019-05-11T07:45:22.895Z,93.60
2019-05-11T07:47:49.975Z,93.50
2019-05-11T07:50:18.235Z,93.50
2019-05-11T07:52:45.534Z,93.50
2019-05-11T07:55:12.858Z,93.40
2019-05-11T07:57:40.312Z,93.50
2019-05-11T08:00:09.426Z,93.40
2019-05-11T08:02:38.469Z,93.40
2019-05-11T08:05:05.913Z,93.30
2019-05-11T08:07:32.998Z,93.40
2019-05-11T08:10:00.429Z,93.30
2019-05-11T08:12:28.487Z,93.50
2019-05-11T08:15:04.821Z,93.40
2019-05-11T08:17:24.638Z,93.70
2019-05-11T08:19:51.721Z,93.50
2019-05-11T08:22:22.758Z,93.50
2019-05-11T08:24:52.185Z,93.60
2019-05-11T08:27:19.313Z,93.80
2019-05-11T08:29:48.587Z,93.80
2019-05-11T08:32:15.513Z,93.80
2019-05-11T08:34:42.787Z,93.90
2019-05-11T08:37:10.136Z,94.10
2019-05-11T08:39:38.659Z,93.90
2019-05-11T08:42:08.809Z,94.20
2019-05-11T08:44:37.933Z,94.30
2019-05-11T08:47:04.698Z,94.00
2019-05-11T08:49:31.873Z,94.40
2019-05-11T08:51:59.634Z,94.30
2019-05-11T08:54:28.859Z,94.10
2019-05-11T08:56:58.755Z,94.30
2019-05-11T08:59:27.850Z,94.30
2019-05-11T09:01:55.622Z,94.40
2019-05-11T09:04:22.874Z,94.10
2019-05-11T09:06:50.138Z,94.20
2019-05-11T09:09:18.150Z,94.40
2019-05-11T09:11:45.453Z,94.50
2019-05-11T09:14:12.608Z,94.40
2019-05-11T09:16:40.163Z,94.50
2019-05-11T09:19:08.767Z,94.70
2019-05-11T09:21:38.269Z,94.40
2019-05-11T09:24:08.210Z,94.40
2019-05-11T09:26:34.569Z,94.50
2019-05-11T09:29:02.639Z,94.40
2019-05-11T09:31:29.824Z,94.30
2019-05-11T09:33:58.412Z,94.40
2019-05-11T09:36:28.521Z,94.50
2019-05-11T09:38:57.985Z,94.50
2019-05-11T09:41:24.939Z,94.50
2019-05-11T09:43:52.010Z,94.50
2019-05-11T09:46:19.295Z,94.30
2019-05-11T09:48:48.384Z,94.40
2019-05-11T09:51:18.500Z,94.30
2019-05-11T09:53:48.244Z,94.40
2019-05-11T09:56:18.102Z,94.40
2019-05-11T09:58:47.958Z,94.20
2019-05-11T10:01:18.041Z,94.30
2019-05-11T10:03:45.141Z,94.40
2019-05-11T10:06:12.640Z,94.40
2019-05-11T10:08:39.807Z,94.40
2019-05-11T10:11:08.412Z,94.40
2019-05-11T10:13:35.701Z,94.30
2019-05-11T10:16:07.434Z,94.40
2019-05-11T10:18:34.926Z,94.40
2019-05-11T10:21:01.966Z,94.20
2019-05-11T10:23:31.182Z,94.30
2019-05-11T10:25:59.843Z,94.30
2019-05-11T10:28:28.418Z,94.40
2019-05-11T10:30:57.886Z,94.30
2019-05-11T10:33:25.170Z,94.40
2019-05-11T10:35:53.266Z,94.50
2019-05-11T10:38:20.470Z,94.40
2019-05-11T10:40:48.031Z,94.40
2019-05-11T10:43:15.195Z,94.20
2019-05-11T10:45:42.234Z,94.40
2019-05-11T10:48:09.366Z,94.30
2019-05-11T10:50:38.125Z,94.50
2019-05-11T10:53:07.837Z,94.40
2019-05-11T10:55:38.609Z,94.50
2019-05-11T10:58:05.909Z,94.30
2019-05-11T11:00:33.207Z,94.20
2019-05-11T11:03:00.439Z,94.50
2019-05-11T11:05:28.040Z,94.30
2019-05-11T11:07:55.419Z,94.40
2019-05-11T11:10:23.248Z,94.80
2019-05-11T11:12:50.758Z,94.50
2019-05-11T11:15:18.439Z,94.50
2019-05-11T11:17:48.574Z,94.70
2019-05-11T11:20:18.560Z,94.70
2019-05-11T11:22:47.897Z,94.60
2019-05-11T11:25:17.782Z,94.50
2019-05-11T11:27:45.722Z,94.20
2019-05-11T11:30:13.669Z,94.00
2019-05-11T11:32:41.690Z,94.10
2019-05-11T11:35:09.073Z,94.00
2019-05-11T11:37:38.703Z,94.10
2019-05-11T11:40:08.367Z,93.70
2019-05-11T11:42:38.985Z,93.50
2019-05-11T11:45:08.284Z,93.60
2019-05-11T11:47:38.153Z,93.90
2019-05-11T11:50:05.294Z,93.90
2019-05-11T11:52:32.719Z,93.80
2019-05-11T11:55:00.890Z,93.70
2019-05-11T11:57:28.741Z,93.00
2019-05-11T11:59:58.777Z,93.30
2019-05-11T12:02:27.922Z,92.90
2019-05-11T12:04:55.289Z,92.90
2019-05-11T12:07:22.842Z,92.60
2019-05-11T12:09:50.390Z,92.60
2019-05-11T12:12:18.616Z,92.90
2019-05-11T12:14:48.016Z,92.70
2019-05-11T12:17:18.038Z,92.90
2019-05-11T12:19:44.843Z,92.20
2019-05-11T12:22:12.659Z,92.50
2019-05-11T12:24:40.777Z,92.20
2019-05-11T12:27:08.139Z,92.30
2019-05-11T12:29:35.915Z,92.00
2019-05-11T12:32:08.013Z,92.20
2019-05-11T12:34:34.502Z,92.20
2019-05-11T12:37:03.094Z,92.30
2019-05-11T12:39:29.991Z,92.00
2019-05-11T12:41:58.228Z,92.20
2019-05-11T12:44:28.451Z,92.10
2019-05-11T12:46:58.399Z,92.00
2019-05-11T12:49:25.554Z,92.40
2019-05-11T12:51:53.021Z,91.70
2019-05-11T12:54:20.514Z,91.80
2019-05-11T12:56:49.085Z,91.30
2019-05-11T12:59:18.755Z,90.90
2019-05-11T13:01:48.404Z,91.60
2019-05-11T13:04:17.964Z,91.40
2019-05-11T13:06:47.988Z,91.40
2019-05-11T13:09:15.436Z,91.70
2019-05-11T13:11:42.611Z,91.50
2019-05-11T13:14:09.875Z,91.20
2019-05-11T13:16:38.551Z,91.50
2019-05-11T13:19:08.272Z,91.20
2019-05-11T13:21:38.247Z,91.10
2019-05-11T13:24:08.411Z,91.30
2019-05-11T13:26:38.072Z,91.10
2019-05-11T13:29:07.987Z,91.10
2019-05-11T13:31:38.358Z,90.80
2019-05-11T13:34:05.767Z,90.70
2019-05-11T13:36:35.175Z,90.70
2019-05-11T13:39:04.735Z,90.40
2019-05-11T13:41:33.255Z,90.10
2019-05-11T13:44:03.141Z,90.40
2019-05-11T13:46:31.881Z,90.20
2019-05-11T13:49:00.194Z,90.50
2019-05-11T13:51:28.669Z,90.30
2019-05-11T13:53:58.442Z,90.40
2019-05-11T13:56:28.112Z,90.70
2019-05-11T13:58:59.066Z,90.70
2019-05-11T14:01:27.831Z,90.50
2019-05-11T14:03:58.386Z,90.30
2019-05-11T14:06:25.947Z,90.20
2019-05-11T14:08:53.419Z,90.20
2019-05-11T14:11:20.810Z,90.10
2019-05-11T14:13:48.600Z,90.20
2019-05-11T14:16:17.904Z,90.30
2019-05-11T14:18:48.667Z,90.30
2019-05-11T14:21:15.801Z,90.00
2019-05-11T14:23:44.275Z,89.80
2019-05-11T14:26:12.654Z,90.20
2019-05-11T14:28:40.866Z,90.30
2019-05-11T14:31:08.897Z,90.50
2019-05-11T14:33:38.516Z,90.60
2019-05-11T14:36:08.368Z,90.80
2019-05-11T14:38:37.923Z,90.80
2019-05-11T14:41:04.835Z,90.70
2019-05-11T14:43:31.927Z,90.80
2019-05-11T14:46:00.008Z,90.90
2019-05-11T14:48:30.075Z,91.00
2019-05-11T14:50:59.310Z,91.00
2019-05-11T14:53:28.352Z,91.20
2019-05-11T14:55:55.658Z,90.90
2019-05-11T14:58:23.029Z,91.60
2019-05-11T15:00:50.698Z,91.80
2019-05-11T15:03:18.644Z,91.50
2019-05-11T15:05:47.479Z,91.50
2019-05-11T15:08:17.860Z,91.70
2019-05-11T15:10:44.941Z,91.80
2019-05-11T15:13:12.146Z,91.70
2019-05-11T15:15:39.719Z,91.70
2019-05-11T15:18:08.475Z,91.70
2019-05-11T15:20:38.626Z,91.80
2019-05-11T15:23:08.877Z,91.50
2019-05-11T15:25:37.704Z,91.70
2019-05-11T15:28:05.742Z,91.40
2019-05-11T15:30:32.786Z,91.80
2019-05-11T15:33:00.201Z,91.40
2019-05-11T15:35:29.290Z,91.30
2019-05-11T15:37:58.173Z,91.20
2019-05-11T15:40:27.852Z,91.30
2019-05-11T15:42:58.589Z,91.10
2019-05-11T15:45:27.663Z,91.20
2019-05-11T15:47:54.755Z,91.10
2019-05-11T15:50:22.066Z,91.40
2019-05-11T15:52:49.658Z,91.10
2019-05-11T15:55:18.791Z,91.30
2019-05-11T15:57:48.294Z,91.10
2019-05-11T16:00:16.861Z,91.00
2019-05-11T16:02:44.990Z,91.00
2019-05-11T16:05:13.229Z,90.90
2019-05-11T16:07:41.500Z,90.90
2019-05-11T16:10:09.507Z,91.00
2019-05-11T16:12:38.995Z,90.90
2019-05-11T16:15:08.690Z,90.80
2019-05-11T16:17:40.002Z,90.70
2019-05-11T16:20:08.874Z,91.20
2019-05-11T16:22:38.440Z,91.30
2019-05-11T16:25:08.681Z,91.00
2019-05-11T16:27:37.937Z,91.30
2019-05-11T16:30:06.423Z,91.40
2019-05-11T16:32:33.558Z,91.30
2019-05-11T16:35:01.344Z,91.30
2019-05-11T16:37:28.903Z,91.30
2019-05-11T16:39:58.297Z,91.40
2019-05-11T16:42:25.226Z,91.50
2019-05-11T16:44:52.529Z,91.60
2019-05-11T16:47:21.825Z,91.60
2019-05-11T16:49:49.303Z,91.50
2019-05-11T16:52:18.335Z,91.50
2019-05-11T16:54:47.755Z,91.50
2019-05-11T16:57:17.683Z,91.00
2019-05-11T16:59:44.759Z,91.00
2019-05-11T17:02:12.078Z,91.00
2019-05-11T17:04:39.978Z,91.10
2019-05-11T17:07:07.970Z,90.80
2019-05-11T17:09:37.830Z,90.90
2019-05-11T17:12:08.550Z,90.90
2019-05-11T17:14:55.451Z,91.20
2019-05-11T17:17:24.567Z,90.70
2019-05-11T17:19:52.366Z,90.90
2019-05-11T17:22:19.450Z,90.40
2019-05-11T17:24:48.442Z,90.40
2019-05-11T17:27:15.891Z,90.10
2019-05-11T17:29:42.970Z,90.20
2019-05-11T17:32:09.994Z,90.10
2019-05-11T17:34:38.113Z,90.20
2019-05-11T17:37:05.808Z,90.40
2019-05-11T17:39:33.362Z,89.70
2019-05-11T17:42:00.403Z,90.20
2019-05-11T17:44:28.266Z,90.10
2019-05-11T17:46:57.722Z,90.10
2019-05-11T17:49:27.737Z,90.00
2019-05-11T17:51:56.798Z,90.10
2019-05-11T17:54:24.617Z,89.80
2019-05-11T17:56:52.417Z,90.00
2019-05-11T17:59:20.391Z,89.70
2019-05-11T18:01:48.197Z,89.20
2019-05-11T18:04:15.154Z,89.20
2019-05-11T18:06:42.753Z,88.50
2019-05-11T18:09:09.901Z,88.20
2019-05-11T18:11:38.026Z,88.50
2019-05-11T18:14:08.148Z,88.00
2019-05-11T18:16:35.476Z,88.20
2019-05-11T18:19:02.634Z,88.10
2019-05-11T18:21:30.377Z,87.90
2019-05-11T18:23:57.533Z,87.60
2019-05-11T18:26:24.671Z,88.30
2019-05-11T18:28:52.939Z,88.60
2019-05-11T18:31:21.083Z,88.40
2019-05-11T18:33:48.841Z,88.20
2019-05-11T18:36:18.148Z,89.30
2019-05-11T18:38:48.561Z,88.30
2019-05-11T18:41:15.563Z,88.70
2019-05-11T18:43:42.627Z,89.20
2019-05-11T18:46:11.185Z,88.70
2019-05-11T18:48:38.286Z,88.40
2019-05-11T18:51:05.674Z,88.50
2019-05-11T18:53:33.552Z,88.40
2019-05-11T18:56:00.938Z,88.60
2019-05-11T18:58:28.359Z,88.90
2019-05-11T19:00:55.509Z,88.50
2019-05-11T19:03:23.077Z,88.00
2019-05-11T19:05:51.307Z,88.60
2019-05-11T19:08:19.140Z,87.90
2019-05-11T19:10:48.836Z,88.00
2019-05-11T19:13:17.648Z,87.60
2019-05-11T19:15:45.099Z,87.30
2019-05-11T19:18:12.366Z,87.50
2019-05-11T19:20:45.834Z,87.70
2019-05-11T19:23:10.418Z,87.20
2019-05-11T19:25:39.350Z,88.40
2019-05-11T19:28:08.579Z,87.70
2019-05-11T19:30:38.291Z,88.20
2019-05-11T19:33:08.273Z,87.90
2019-05-11T19:35:37.887Z,87.70
2019-05-11T19:38:08.475Z,87.70
2019-05-11T19:40:38.467Z,87.70
2019-05-11T19:43:07.693Z,87.20
2019-05-11T19:45:35.290Z,87.20
2019-05-11T19:48:03.238Z,87.30
2019-05-11T19:50:31.802Z,86.80
2019-05-11T19:52:58.954Z,86.90
2019-05-11T19:55:28.605Z,87.20
2019-05-11T19:57:57.674Z,87.30
2019-05-11T20:00:27.124Z,86.90
2019-05-11T20:02:58.366Z,88.00
2019-05-11T20:05:28.853Z,87.20
2019-05-11T20:07:59.153Z,86.90
2019-05-11T20:10:28.667Z,86.60
2019-05-11T20:12:58.861Z,86.30
2019-05-11T20:15:27.652Z,86.60
2019-05-11T20:17:58.677Z,86.20
2019-05-11T20:20:28.583Z,86.50
2019-05-11T20:22:58.564Z,86.10
2019-05-11T20:25:30.678Z,86.10
2019-05-11T20:27:59.776Z,86.00
2019-05-11T20:30:29.966Z,85.90
2019-05-11T20:32:58.718Z,85.90
2019-05-11T20:35:32.384Z,86.20
2019-05-11T20:38:01.116Z,85.80
2019-05-11T20:40:28.938Z,85.70
2019-05-11T20:42:56.061Z,85.40
2019-05-11T20:45:23.543Z,85.40
2019-05-11T20:47:51.041Z,85.60
2019-05-11T20:50:19.197Z,85.60
2019-05-11T20:52:48.004Z,85.70
2019-05-11T20:55:18.237Z,85.20
2019-05-11T20:57:48.094Z,85.10
2019-05-11T21:00:15.887Z,85.00
2019-05-11T21:02:43.330Z,84.70
2019-05-11T21:05:11.151Z,84.80
2019-05-11T21:07:39.046Z,84.70
2019-05-11T21:10:08.637Z,84.20
2019-05-11T21:12:38.506Z,84.20
2019-05-11T21:15:07.826Z,84.00
2019-05-11T21:17:35.049Z,83.70
2019-05-11T21:20:03.734Z,83.80
2019-05-11T21:22:31.606Z,83.90
2019-05-11T21:25:00.284Z,83.60
2019-05-11T21:27:29.041Z,84.10
2019-05-11T21:29:58.395Z,84.00
2019-05-11T21:32:27.758Z,84.10
2019-05-11T21:34:58.427Z,84.00
2019-05-11T21:37:24.557Z,83.90
2019-05-11T21:39:52.159Z,83.80
2019-05-11T21:42:19.805Z,83.80
2019-05-11T21:44:46.954Z,83.90
2019-05-11T21:47:14.246Z,84.00
2019-05-11T21:49:41.990Z,83.90
2019-05-11T21:52:11.326Z,84.00
2019-05-11T21:54:38.833Z,84.00
2019-05-11T21:57:07.705Z,84.60
2019-05-11T21:59:35.101Z,83.60
2019-05-11T22:02:03.187Z,83.70
2019-05-11T22:04:30.202Z,83.60
2019-05-11T22:06:58.839Z,83.50
2019-05-11T22:09:27.819Z,83.30
2019-05-11T22:11:55.079Z,83.40
2019-05-11T22:14:22.246Z,83.50
2019-05-11T22:16:49.852Z,83.50
2019-05-11T22:19:17.869Z,83.80
2019-05-11T22:21:49.408Z,83.60
2019-05-11T22:24:17.931Z,83.30
2019-05-11T22:26:45.770Z,83.60
2019-05-11T22:29:13.245Z,83.50
2019-05-11T22:31:42.102Z,83.50
2019-05-11T22:34:09.546Z,83.40
2019-05-11T22:36:38.706Z,83.40
2019-05-11T22:39:08.406Z,83.40
2019-05-11T22:41:39.347Z,82.80
2019-05-11T22:44:05.311Z,82.80
2019-05-11T22:46:32.675Z,82.80
2019-05-11T22:49:00.982Z,82.80
2019-05-11T22:51:28.961Z,83.10
2019-05-11T22:53:56.202Z,82.80
2019-05-11T22:56:24.044Z,83.10
2019-05-11T22:58:51.669Z,83.20
2019-05-11T23:01:19.962Z,83.10
2019-05-11T23:03:47.975Z,83.30
2019-05-11T23:06:15.248Z,83.10
2019-05-11T23:08:42.354Z,82.90
2019-05-11T23:11:10.567Z,82.80
2019-05-11T23:13:38.214Z,82.90
2019-05-11T23:16:05.394Z,83.00
2019-05-11T23:18:33.770Z,82.80
2019-05-11T23:21:01.486Z,82.90
2019-05-11T23:23:29.837Z,82.90
2019-05-11T23:25:57.975Z,82.80
2019-05-11T23:28:25.410Z,82.80
2019-05-11T23:30:52.605Z,82.80
2019-05-11T23:33:21.341Z,82.60
2019-05-11T23:35:48.838Z,82.70
2019-05-11T23:38:19.410Z,82.60
2019-05-11T23:40:48.144Z,82.80
2019-05-11T23:43:18.997Z,82.70
2019-05-11T23:45:46.022Z,82.60
2019-05-11T23:48:13.492Z,82.30
2019-05-11T23:50:41.512Z,82.30
2019-05-11T23:53:10.450Z,82.40
2019-05-11T23:55:38.366Z,82.10
2019-05-11T23:58:05.486Z,82.00
